Terminal Aerodrome Forecast
Issued by NWS Memphis, TN

Home | Current Version | Previous Version | Text Only | Print | Product List | Glossary On
Versions: 1 2 3 4 5 6 7 8 9 10 11 12 13 14 15 16 17 18 19 20 21 22 23 24 25 26 27 28 29
000
FTUS44 KMEG 282059 AAA
TAFMEM
TAF AMD
KMEM 282059Z 2821/2918 02009KT P6SM VCSH OVC011
     FM290000 02005KT P6SM OVC015
     FM290300 02004KT P6SM OVC009
     FM291400 03005KT P6SM OVC020=

USA.gov is the U.S. government's official web portal to all federal, state and local government web resources and services.